Time;durP1;ratioP1;P1;durP2;ratioP2;P2;SDS_P1;SDS_P2;PMS_P1;PMS_P2;Temp;Humidity;BMP_temperature;BMP_pressure;BME280_temperature;BME280_humidity;BME280_pressure;Samples;Min_cycle;Max_cycle;Signal;HPM_P1;HPM_P2
2023/03/14 00:00:08;;;;;;;26.35;4.20;;;;;;;;;;5095931;28;20518;-74
2023/03/14 00:02:35;;;;;;;23.02;5.22;;;;;;;;;;5096324;28;20031;-74
2023/03/14 00:05:06;;;;;;;23.70;5.13;;;;;;;;;;5091415;28;20020;-74
2023/03/14 00:07:34;;;;;;;38.92;5.95;;;;;;;;;;5083645;28;20115;-75
2023/03/14 00:10:01;;;;;;;22.27;4.55;;;;;;;;;;5084119;28;20021;-74
2023/03/14 00:12:28;;;;;;;14.90;3.97;;;;;;;;;;5091055;28;20047;-74
2023/03/14 00:14:54;;;;;;;10.40;2.45;;;;;;;;;;5076688;28;20024;-74
2023/03/14 00:17:20;;;;;;;33.00;5.15;;;;;;;;;;5087963;28;20070;-74
2023/03/14 00:19:46;;;;;;;25.52;5.03;;;;;;;;;;5081930;28;20103;-74
2023/03/14 00:22:12;;;;;;;23.50;3.42;;;;;;;;;;5080634;28;20395;-74
2023/03/14 00:24:38;;;;;;;33.00;4.22;;;;;;;;;;5089787;28;20024;-74
2023/03/14 00:27:04;;;;;;;26.48;5.22;;;;;;;;;;5076881;28;20020;-74
2023/03/14 00:29:30;;;;;;;35.83;5.65;;;;;;;;;;5086060;28;20020;-74
2023/03/14 00:31:57;;;;;;;46.75;6.60;;;;;;;;;;5085655;28;20024;-74
2023/03/14 00:34:23;;;;;;;32.65;6.50;;;;;;;;;;5093705;28;20484;-75
2023/03/14 00:36:49;;;;;;;34.85;5.47;;;;;;;;;;5078239;28;20024;-74
2023/03/14 00:39:15;;;;;;;27.98;5.10;;;;;;;;;;5089035;28;20044;-74
2023/03/14 00:41:41;;;;;;;40.25;6.07;;;;;;;;;;5082868;28;20025;-74
2023/03/14 00:44:07;;;;;;;21.70;4.07;;;;;;;;;;5081950;28;20024;-75
2023/03/14 00:46:34;;;;;;;31.17;5.88;;;;;;;;;;5090608;28;20020;-74
2023/03/14 00:49:00;;;;;;;22.80;4.68;;;;;;;;;;5078137;28;20020;-75
2023/03/14 00:51:26;;;;;;;26.92;4.32;;;;;;;;;;5087801;28;20025;-75
2023/03/14 00:53:52;;;;;;;25.45;4.78;;;;;;;;;;5065640;28;20107;-75
2023/03/14 00:56:18;;;;;;;20.40;5.55;;;;;;;;;;5081993;28;20024;-75
2023/03/14 00:58:44;;;;;;;25.13;4.43;;;;;;;;;;5090922;28;20051;-75
2023/03/14 01:01:15;;;;;;;30.48;6.70;;;;;;;;;;5085748;28;20074;-75
2023/03/14 01:03:42;;;;;;;29.77;4.30;;;;;;;;;;5085776;28;20480;-74
2023/03/14 01:06:13;;;;;;;25.40;4.88;;;;;;;;;;5084802;28;20020;-75
2023/03/14 01:08:41;;;;;;;26.10;5.13;;;;;;;;;;5078115;28;20032;-75
2023/03/14 01:11:12;;;;;;;26.58;3.95;;;;;;;;;;5089117;28;20033;-75
2023/03/14 01:13:38;;;;;;;22.15;4.90;;;;;;;;;;5080542;28;20067;-75
2023/03/14 01:16:06;;;;;;;21.00;4.20;;;;;;;;;;5082575;28;20350;-75
2023/03/14 01:18:33;;;;;;;26.35;4.80;;;;;;;;;;5089267;28;20028;-76
2023/03/14 01:20:59;;;;;;;28.17;5.53;;;;;;;;;;5076023;28;20396;-76
2023/03/14 01:23:25;;;;;;;28.25;4.90;;;;;;;;;;5089455;28;20492;-75
2023/03/14 01:25:51;;;;;;;36.95;5.57;;;;;;;;;;5080255;28;20020;-75
2023/03/14 01:28:19;;;;;;;32.00;3.83;;;;;;;;;;5080579;28;20028;-75
2023/03/14 01:30:45;;;;;;;21.35;3.95;;;;;;;;;;5089165;28;20031;-75
2023/03/14 01:33:14;;;;;;;24.80;4.10;;;;;;;;;;5083692;28;20024;-75
2023/03/14 01:35:42;;;;;;;25.50;3.83;;;;;;;;;;5085805;28;20488;-75
2023/03/14 01:38:08;;;;;;;29.00;4.43;;;;;;;;;;5083195;28;20028;-75
2023/03/14 01:40:41;;;;;;;26.45;4.78;;;;;;;;;;5078005;28;20550;-75
2023/03/14 01:43:14;;;;;;;30.80;4.40;;;;;;;;;;5089209;28;20017;-76
2023/03/14 01:45:58;;;;;;;28.70;5.28;;;;;;;;;;5079693;28;20028;-76
2023/03/14 01:48:29;;;;;;;36.53;5.55;;;;;;;;;;5089229;28;20051;-76
2023/03/14 01:50:55;;;;;;;36.75;5.47;;;;;;;;;;5075589;28;20036;-75
2023/03/14 01:53:21;;;;;;;27.40;5.78;;;;;;;;;;5090098;28;20561;-75
2023/03/14 01:55:48;;;;;;;22.20;4.93;;;;;;;;;;5079851;28;20028;-75
2023/03/14 01:58:16;;;;;;;29.40;4.72;;;;;;;;;;5082689;28;20024;-76
2023/03/14 02:00:42;;;;;;;24.77;4.38;;;;;;;;;;5088590;28;20391;-75
2023/03/14 02:03:15;;;;;;;32.65;4.60;;;;;;;;;;5080053;28;20031;-75
2023/03/14 02:05:42;;;;;;;28.80;4.57;;;;;;;;;;5078773;28;20495;-76
2023/03/14 02:08:17;;;;;;;25.77;4.45;;;;;;;;;;5081229;28;20035;-76
2023/03/14 02:10:48;;;;;;;17.48;3.53;;;;;;;;;;5087551;28;20484;-75
2023/03/14 02:13:21;;;;;;;26.60;4.88;;;;;;;;;;5075447;28;20119;-75
2023/03/14 02:15:50;;;;;;;19.08;3.17;;;;;;;;;;5085977;28;20124;-75
2023/03/14 02:18:46;;;;;;;16.02;3.15;;;;;;;;;;5030843;28;20053;-75
2023/03/14 02:21:25;;;;;;;26.67;4.80;;;;;;;;;;5047258;28;20155;-76
2023/03/14 02:23:56;;;;;;;16.92;2.75;;;;;;;;;;5021969;28;20095;-76
2023/03/14 02:26:26;;;;;;;19.30;3.17;;;;;;;;;;5022615;28;20596;-76
2023/03/14 02:28:53;;;;;;;32.78;4.00;;;;;;;;;;5030342;28;20163;-76
2023/03/14 02:31:21;;;;;;;21.67;3.20;;;;;;;;;;5017348;28;20025;-75
2023/03/14 02:33:49;;;;;;;36.40;4.22;;;;;;;;;;5033565;28;20021;-75
2023/03/14 02:36:15;;;;;;;19.52;3.88;;;;;;;;;;5023453;28;20543;-75
2023/03/14 02:38:44;;;;;;;24.08;3.85;;;;;;;;;;5044366;28;20156;-76
2023/03/14 02:41:10;;;;;;;34.63;5.18;;;;;;;;;;5031901;28;20126;-76
2023/03/14 02:43:42;;;;;;;32.40;6.30;;;;;;;;;;5019888;28;20412;-76
2023/03/14 02:46:12;;;;;;;24.35;6.35;;;;;;;;;;5024246;28;20021;-76
2023/03/14 02:48:41;;;;;;;29.58;5.47;;;;;;;;;;5044095;28;20114;-76
2023/03/14 02:51:11;;;;;;;24.27;4.40;;;;;;;;;;5016976;28;20030;-76
2023/03/14 02:53:38;;;;;;;31.08;6.72;;;;;;;;;;5028717;28;20029;-75
2023/03/14 02:56:09;;;;;;;22.92;4.18;;;;;;;;;;5069819;28;20115;-76
2023/03/14 02:58:37;;;;;;;27.85;4.70;;;;;;;;;;5084339;28;20024;-76
2023/03/14 03:01:17;;;;;;;25.02;4.55;;;;;;;;;;5073213;28;20089;-76
2023/03/14 03:03:43;;;;;;;20.35;4.15;;;;;;;;;;5076803;28;20028;-76
2023/03/14 03:06:10;;;;;;;29.40;5.93;;;;;;;;;;5082133;28;20086;-76
2023/03/14 03:08:36;;;;;;;24.73;4.47;;;;;;;;;;5084907;28;20609;-76
2023/03/14 03:11:02;;;;;;;39.67;6.32;;;;;;;;;;5076179;28;20408;-76
2023/03/14 03:13:31;;;;;;;37.63;5.25;;;;;;;;;;5087706;28;20024;-75
2023/03/14 03:16:00;;;;;;;28.38;5.80;;;;;;;;;;5078630;28;20020;-75
2023/03/14 03:18:26;;;;;;;32.10;4.63;;;;;;;;;;5081170;28;20024;-76
2023/03/14 03:20:52;;;;;;;30.40;5.05;;;;;;;;;;5068809;28;20028;-75
2023/03/14 03:23:18;;;;;;;25.63;4.25;;;;;;;;;;5073500;28;20021;-76
2023/03/14 03:25:49;;;;;;;37.63;4.32;;;;;;;;;;5069122;28;20031;-75
2023/03/14 03:28:15;;;;;;;33.25;4.05;;;;;;;;;;5080186;28;20247;-75
2023/03/14 03:30:42;;;;;;;24.10;4.72;;;;;;;;;;5077584;28;20032;-75
2023/03/14 03:33:09;;;;;;;21.05;3.50;;;;;;;;;;5086913;28;20024;-75
2023/03/14 03:35:35;;;;;;;28.55;4.63;;;;;;;;;;5074382;28;20060;-75
2023/03/14 03:38:01;;;;;;;20.50;4.10;;;;;;;;;;5083263;28;20097;-75
2023/03/14 03:40:28;;;;;;;21.98;3.50;;;;;;;;;;5081379;28;20120;-75
2023/03/14 03:42:56;;;;;;;32.53;5.25;;;;;;;;;;5077355;28;20496;-75
2023/03/14 03:45:23;;;;;;;24.58;4.32;;;;;;;;;;5088180;28;20020;-75
2023/03/14 03:47:54;;;;;;;15.68;3.25;;;;;;;;;;5076127;28;20024;-75
2023/03/14 03:50:20;;;;;;;23.73;4.20;;;;;;;;;;5080642;28;20032;-75
2023/03/14 03:52:47;;;;;;;22.25;4.50;;;;;;;;;;5081785;28;20032;-75
2023/03/14 03:55:13;;;;;;;23.65;3.72;;;;;;;;;;5073222;28;20033;-75
2023/03/14 03:57:39;;;;;;;26.63;4.18;;;;;;;;;;5090541;28;20403;-76
2023/03/14 04:00:05;;;;;;;19.13;4.18;;;;;;;;;;5082748;28;20020;-75
2023/03/14 04:02:40;;;;;;;20.55;3.78;;;;;;;;;;5082997;28;20032;-76
2023/03/14 04:05:08;;;;;;;28.83;5.82;;;;;;;;;;5070409;28;20020;-75
2023/03/14 04:07:34;;;;;;;28.23;4.85;;;;;;;;;;5078897;28;20028;-75
2023/03/14 04:10:01;;;;;;;33.30;5.78;;;;;;;;;;5089187;28;20032;-76
2023/03/14 04:12:36;;;;;;;31.02;5.63;;;;;;;;;;5090595;28;20085;-76
2023/03/14 04:15:07;;;;;;;27.15;6.10;;;;;;;;;;5090799;28;20035;-75
2023/03/14 04:17:35;;;;;;;30.92;5.18;;;;;;;;;;5088177;28;20039;-76
2023/03/14 04:20:01;;;;;;;19.60;3.30;;;;;;;;;;5073952;28;20094;-76
2023/03/14 04:22:35;;;;;;;17.40;2.83;;;;;;;;;;5080974;28;20563;-75
2023/03/14 04:25:03;;;;;;;22.88;3.80;;;;;;;;;;5077544;28;20021;-75
2023/03/14 04:27:31;;;;;;;19.63;4.32;;;;;;;;;;5057501;28;20102;-75
2023/03/14 04:30:00;;;;;;;13.63;2.08;;;;;;;;;;5085823;28;20423;-75
2023/03/14 04:32:46;;;;;;;17.80;2.10;;;;;;;;;;5064221;28;20035;-76
2023/03/14 04:35:13;;;;;;;23.02;4.07;;;;;;;;;;5090371;28;20031;-75
2023/03/14 04:37:41;;;;;;;19.98;3.83;;;;;;;;;;5091595;28;20024;-76
2023/03/14 04:40:09;;;;;;;24.63;3.75;;;;;;;;;;5077872;28;20523;-75
2023/03/14 04:42:35;;;;;;;23.02;4.43;;;;;;;;;;5072752;28;20506;-76
2023/03/14 04:45:01;;;;;;;17.92;2.60;;;;;;;;;;5074159;28;20047;-75
2023/03/14 04:47:29;;;;;;;19.55;3.85;;;;;;;;;;5075076;28;20067;-76
2023/03/14 04:49:55;;;;;;;31.02;3.88;;;;;;;;;;5073519;28;20026;-76
2023/03/14 04:52:24;;;;;;;33.67;4.88;;;;;;;;;;5075296;28;20055;-76
2023/03/14 04:54:51;;;;;;;36.95;4.80;;;;;;;;;;5074363;28;20037;-76
2023/03/14 04:57:18;;;;;;;22.65;5.13;;;;;;;;;;5077269;28;20051;-77
2023/03/14 04:59:45;;;;;;;25.70;5.38;;;;;;;;;;5076887;28;20480;-76
2023/03/14 05:02:35;;;;;;;40.28;4.57;;;;;;;;;;5081504;28;20024;-72
2023/03/14 05:05:22;;;;;;;16.77;3.92;;;;;;;;;;5059826;28;20041;-77
2023/03/14 05:08:23;;;;;;;29.00;4.97;;;;;;;;;;5056710;28;20103;-78
2023/03/14 05:11:21;;;;;;;27.90;4.28;;;;;;;;;;5017833;28;20037;-77
2023/03/14 05:14:02;;;;;;;31.25;5.07;;;;;;;;;;5041289;28;20082;-78
2023/03/14 05:16:51;;;;;;;29.95;5.45;;;;;;;;;;5012483;28;20038;-77
2023/03/14 05:19:44;;;;;;;31.25;4.97;;;;;;;;;;5009465;28;20054;-77
2023/03/14 05:22:21;;;;;;;23.23;4.72;;;;;;;;;;4995508;28;20044;-78
2023/03/14 05:25:11;;;;;;;30.20;4.60;;;;;;;;;;4932847;29;20036;-77
2023/03/14 05:28:00;;;;;;;23.80;4.32;;;;;;;;;;4932480;29;20040;-77
2023/03/14 05:30:44;;;;;;;13.35;2.85;;;;;;;;;;4932541;29;20575;-76
2023/03/14 05:33:20;;;;;;;10.75;2.53;;;;;;;;;;4932778;29;20072;-76
2023/03/14 05:36:05;;;;;;;18.25;3.25;;;;;;;;;;4933277;29;20046;-76
2023/03/14 05:38:51;;;;;;;13.82;3.67;;;;;;;;;;4900401;29;20552;-76
2023/03/14 05:41:29;;;;;;;18.40;2.55;;;;;;;;;;4903484;29;20524;-76
2023/03/14 05:44:04;;;;;;;16.25;2.45;;;;;;;;;;4846965;29;20068;-76
2023/03/14 05:46:52;;;;;;;25.60;3.08;;;;;;;;;;4872834;29;20037;-76
2023/03/14 05:49:35;;;;;;;14.15;2.65;;;;;;;;;;4873464;29;20050;-76
2023/03/14 05:52:19;;;;;;;19.13;3.17;;;;;;;;;;4872517;29;20080;-76
2023/03/14 05:54:55;;;;;;;20.42;2.58;;;;;;;;;;4894454;29;20047;-76
2023/03/14 05:57:47;;;;;;;21.88;3.47;;;;;;;;;;4913417;29;20033;-76
2023/03/14 06:00:33;;;;;;;30.02;4.22;;;;;;;;;;4908558;29;20040;-76
2023/03/14 06:03:18;;;;;;;23.85;2.90;;;;;;;;;;4948232;28;20035;-76
2023/03/14 06:05:49;;;;;;;24.80;3.97;;;;;;;;;;4978258;28;20373;-76
2023/03/14 06:08:16;;;;;;;13.57;3.20;;;;;;;;;;4955155;28;20046;-75
2023/03/14 06:10:42;;;;;;;17.95;3.70;;;;;;;;;;4953097;28;20038;-76
2023/03/14 06:13:08;;;;;;;26.50;3.85;;;;;;;;;;4961926;28;20530;-74
2023/03/14 06:15:35;;;;;;;21.60;3.40;;;;;;;;;;4964591;28;20181;-77
2023/03/14 06:18:03;;;;;;;22.13;3.38;;;;;;;;;;4971504;28;20038;-75
2023/03/14 06:20:29;;;;;;;16.20;3.10;;;;;;;;;;4984101;28;20018;-76
2023/03/14 06:22:56;;;;;;;19.50;3.47;;;;;;;;;;4988117;28;20042;-76
2023/03/14 06:25:22;;;;;;;26.83;4.15;;;;;;;;;;5000771;28;20081;-76
2023/03/14 06:27:48;;;;;;;20.15;3.15;;;;;;;;;;4996398;28;20038;-76
2023/03/14 06:30:16;;;;;;;22.30;5.75;;;;;;;;;;4983844;28;20070;-75
2023/03/14 06:32:42;;;;;;;30.00;3.95;;;;;;;;;;4988964;28;20062;-76
2023/03/14 06:35:11;;;;;;;22.85;3.78;;;;;;;;;;5063669;28;20040;-75
2023/03/14 06:37:41;;;;;;;43.15;7.18;;;;;;;;;;5083748;28;20046;-75
2023/03/14 06:40:08;;;;;;;27.50;5.50;;;;;;;;;;5077233;28;20056;-67
2023/03/14 06:42:54;;;;;;;24.25;3.63;;;;;;;;;;5081291;28;20111;-75
2023/03/14 06:45:23;;;;;;;27.23;4.40;;;;;;;;;;5077466;28;20059;-75
2023/03/14 06:47:50;;;;;;;19.67;3.45;;;;;;;;;;5078954;28;20066;-75
2023/03/14 06:50:19;;;;;;;35.83;4.70;;;;;;;;;;5074935;28;20471;-75
2023/03/14 06:52:47;;;;;;;26.60;4.70;;;;;;;;;;5071546;28;20418;-75
2023/03/14 06:55:17;;;;;;;33.75;4.47;;;;;;;;;;5071634;28;20447;-75
2023/03/14 06:57:44;;;;;;;23.10;3.97;;;;;;;;;;5071148;28;20115;-75
2023/03/14 07:00:11;;;;;;;18.90;3.00;;;;;;;;;;5071070;28;20032;-74
2023/03/14 07:02:38;;;;;;;20.88;2.85;;;;;;;;;;5071468;28;20059;-74
2023/03/14 07:05:06;;;;;;;21.05;3.20;;;;;;;;;;5070735;28;20025;-74
2023/03/14 07:07:32;;;;;;;24.50;4.10;;;;;;;;;;5071258;28;20028;-74
2023/03/14 07:09:58;;;;;;;22.35;4.28;;;;;;;;;;5071077;28;20404;-74
2023/03/14 07:12:24;;;;;;;27.63;4.72;;;;;;;;;;5071353;28;20029;-74
2023/03/14 07:14:51;;;;;;;21.85;3.97;;;;;;;;;;5072266;28;20446;-74
2023/03/14 07:17:17;;;;;;;21.55;4.60;;;;;;;;;;5071302;28;20464;-74
2023/03/14 07:19:43;;;;;;;23.45;3.80;;;;;;;;;;5071280;28;20028;-74
2023/03/14 07:22:09;;;;;;;23.92;3.70;;;;;;;;;;5071175;28;20072;-74
2023/03/14 07:24:35;;;;;;;24.77;4.00;;;;;;;;;;5071082;28;20039;-74
2023/03/14 07:27:01;;;;;;;22.45;4.28;;;;;;;;;;5090149;28;20499;-74
2023/03/14 07:29:28;;;;;;;22.83;4.00;;;;;;;;;;5087555;28;20028;-74
2023/03/14 07:31:56;;;;;;;24.17;3.67;;;;;;;;;;5070925;28;20399;-74
2023/03/14 07:34:22;;;;;;;22.75;3.50;;;;;;;;;;5084156;28;20028;-75
2023/03/14 07:36:49;;;;;;;22.38;3.95;;;;;;;;;;5082320;28;20036;-74
2023/03/14 07:39:15;;;;;;;28.25;5.13;;;;;;;;;;5078579;28;20051;-74
2023/03/14 07:41:41;;;;;;;28.25;5.00;;;;;;;;;;5080813;28;20029;-75
2023/03/14 07:44:26;;;;;;;21.13;4.10;;;;;;;;;;5078639;28;20403;-75
2023/03/14 07:46:52;;;;;;;33.83;4.18;;;;;;;;;;5092233;28;20063;-75
2023/03/14 07:49:18;;;;;;;22.08;3.63;;;;;;;;;;5092189;28;20016;-74
2023/03/14 07:51:44;;;;;;;21.83;3.72;;;;;;;;;;5092693;28;20516;-75
2023/03/14 07:54:11;;;;;;;17.38;3.80;;;;;;;;;;5092266;28;20027;-75
2023/03/14 07:56:37;;;;;;;24.40;3.67;;;;;;;;;;5092252;28;20031;-75
2023/03/14 07:59:03;;;;;;;20.52;4.55;;;;;;;;;;5091982;28;20024;-75
2023/03/14 08:01:29;;;;;;;29.35;4.25;;;;;;;;;;5092223;28;20028;-75
2023/03/14 08:03:56;;;;;;;20.85;3.22;;;;;;;;;;5092048;28;20028;-75
2023/03/14 08:06:22;;;;;;;24.65;3.20;;;;;;;;;;5090864;28;20501;-75
2023/03/14 08:08:48;;;;;;;13.77;2.90;;;;;;;;;;5088955;28;20062;-75
2023/03/14 08:11:14;;;;;;;16.92;3.80;;;;;;;;;;5089079;28;20031;-75
2023/03/14 08:13:40;;;;;;;18.35;3.55;;;;;;;;;;5090084;28;20107;-75
2023/03/14 08:16:06;;;;;;;14.30;3.65;;;;;;;;;;5091114;28;20059;-75
2023/03/14 08:18:33;;;;;;;22.48;3.42;;;;;;;;;;5077249;28;20031;-75
2023/03/14 08:20:59;;;;;;;16.35;4.00;;;;;;;;;;5095841;28;20491;-75
2023/03/14 08:23:25;;;;;;;23.73;3.28;;;;;;;;;;5096060;28;20020;-75
2023/03/14 08:25:51;;;;;;;19.83;3.95;;;;;;;;;;5096148;28;20047;-75
2023/03/14 08:28:18;;;;;;;27.52;3.78;;;;;;;;;;5095503;28;20063;-75
2023/03/14 08:30:44;;;;;;;23.20;4.63;;;;;;;;;;5095896;28;20036;-75
2023/03/14 08:33:10;;;;;;;32.00;4.40;;;;;;;;;;5094219;28;20080;-75
2023/03/14 08:35:39;;;;;;;26.70;4.22;;;;;;;;;;5095964;28;20039;-75
2023/03/14 08:38:05;;;;;;;22.42;4.40;;;;;;;;;;5095345;28;20031;-74
2023/03/14 08:40:31;;;;;;;24.17;4.68;;;;;;;;;;5094564;28;20388;-75
2023/03/14 08:42:57;;;;;;;27.63;4.93;;;;;;;;;;5094023;28;20024;-75
2023/03/14 08:45:24;;;;;;;29.95;5.32;;;;;;;;;;5094184;28;20113;-75
2023/03/14 08:47:51;;;;;;;25.27;4.80;;;;;;;;;;5094535;28;20024;-74
2023/03/14 08:50:17;;;;;;;37.30;5.30;;;;;;;;;;5095364;28;20142;-75
2023/03/14 08:52:43;;;;;;;19.70;3.95;;;;;;;;;;5095582;28;20365;-75
2023/03/14 08:55:09;;;;;;;23.63;4.28;;;;;;;;;;5094922;28;20115;-74
2023/03/14 08:57:36;;;;;;;23.60;4.25;;;;;;;;;;5095334;28;20074;-75
2023/03/14 09:00:05;;;;;;;13.00;3.50;;;;;;;;;;5093300;28;20056;-75
2023/03/14 09:02:31;;;;;;;29.10;4.30;;;;;;;;;;5081734;28;20488;-75
2023/03/14 09:04:57;;;;;;;28.60;3.72;;;;;;;;;;5075116;28;20028;-75
2023/03/14 09:07:23;;;;;;;24.48;4.20;;;;;;;;;;5075032;28;20473;-75
2023/03/14 09:09:49;;;;;;;22.67;3.80;;;;;;;;;;5074530;28;20078;-74
2023/03/14 09:12:15;;;;;;;25.58;4.03;;;;;;;;;;5075055;28;20024;-74
2023/03/14 09:14:41;;;;;;;25.73;4.05;;;;;;;;;;5074798;28;20058;-74
2023/03/14 09:17:07;;;;;;;15.98;3.17;;;;;;;;;;5074676;28;20024;-75
2023/03/14 09:19:33;;;;;;;23.70;3.45;;;;;;;;;;5074710;28;20036;-75
2023/03/14 09:22:00;;;;;;;20.10;3.28;;;;;;;;;;5073518;28;20021;-75
2023/03/14 09:24:26;;;;;;;17.73;4.30;;;;;;;;;;5072949;28;20495;-75
2023/03/14 09:26:52;;;;;;;15.38;3.38;;;;;;;;;;5091558;28;20488;-75
2023/03/14 09:29:18;;;;;;;26.05;6.18;;;;;;;;;;5089617;28;20188;-74
2023/03/14 09:31:44;;;;;;;19.35;3.70;;;;;;;;;;5075117;28;20013;-74
2023/03/14 09:34:10;;;;;;;33.70;4.47;;;;;;;;;;5092871;28;20020;-74
2023/03/14 09:36:38;;;;;;;15.23;3.40;;;;;;;;;;5094716;28;20384;-74
2023/03/14 09:39:04;;;;;;;19.48;3.50;;;;;;;;;;5083968;28;20044;-74
2023/03/14 09:41:33;;;;;;;16.83;3.08;;;;;;;;;;5073949;28;20052;-74
2023/03/14 09:44:03;;;;;;;16.13;3.63;;;;;;;;;;5074316;28;20561;-75
2023/03/14 09:46:30;;;;;;;29.75;3.55;;;;;;;;;;5074286;28;20017;-75
2023/03/14 09:48:56;;;;;;;20.63;3.85;;;;;;;;;;5074220;28;20115;-75
2023/03/14 09:51:23;;;;;;;31.88;4.45;;;;;;;;;;5073955;28;20035;-74
2023/03/14 09:53:51;;;;;;;33.95;4.18;;;;;;;;;;5073860;28;20400;-74
2023/03/14 09:56:24;;;;;;;23.17;4.28;;;;;;;;;;5074079;28;20111;-74
2023/03/14 09:59:01;;;;;;;29.85;5.20;;;;;;;;;;5073968;28;20039;-74
2023/03/14 10:01:29;;;;;;;35.65;6.03;;;;;;;;;;5073723;28;20025;-74
2023/03/14 10:03:56;;;;;;;29.00;4.95;;;;;;;;;;5073904;28;20052;-75
2023/03/14 10:06:25;;;;;;;28.98;4.53;;;;;;;;;;5073756;28;20032;-74
2023/03/14 10:08:52;;;;;;;29.25;4.50;;;;;;;;;;5072338;28;20095;-74
2023/03/14 10:11:19;;;;;;;36.22;5.35;;;;;;;;;;5073484;28;20081;-74
2023/03/14 10:14:03;;;;;;;33.20;5.50;;;;;;;;;;5073516;28;20590;-74
2023/03/14 10:16:31;;;;;;;33.42;6.78;;;;;;;;;;5073508;28;20111;-74
2023/03/14 10:19:02;;;;;;;27.33;5.13;;;;;;;;;;5072523;28;20430;-74
2023/03/14 10:21:30;;;;;;;21.55;3.08;;;;;;;;;;5073487;28;20048;-74
2023/03/14 10:24:08;;;;;;;25.88;5.18;;;;;;;;;;5073155;28;20024;-74
2023/03/14 10:26:35;;;;;;;18.92;4.13;;;;;;;;;;5077229;28;20107;-74
2023/03/14 10:29:08;;;;;;;21.48;4.20;;;;;;;;;;5093736;28;20128;-74
2023/03/14 10:31:53;;;;;;;21.05;3.55;;;;;;;;;;5093466;28;20059;-74
2023/03/14 10:34:27;;;;;;;14.32;3.65;;;;;;;;;;5093435;28;20028;-74
2023/03/14 10:36:54;;;;;;;17.35;3.42;;;;;;;;;;5093274;28;20027;-74
2023/03/14 10:39:23;;;;;;;15.13;3.33;;;;;;;;;;5092617;28;20043;-74
2023/03/14 10:41:50;;;;;;;15.13;2.92;;;;;;;;;;5091585;28;20437;-75
2023/03/14 10:44:19;;;;;;;14.27;3.17;;;;;;;;;;5091988;28;20028;-74
2023/03/14 10:46:45;;;;;;;23.48;3.42;;;;;;;;;;5093273;28;20027;-74
2023/03/14 10:49:28;;;;;;;17.65;4.43;;;;;;;;;;5091878;28;20544;-74
2023/03/14 10:51:54;;;;;;;13.50;3.28;;;;;;;;;;5091729;28;20500;-74
2023/03/14 10:54:21;;;;;;;12.45;2.45;;;;;;;;;;5093010;28;20023;-74
2023/03/14 10:56:56;;;;;;;26.90;4.60;;;;;;;;;;5093083;28;20016;-74
2023/03/14 10:59:22;;;;;;;17.52;4.30;;;;;;;;;;5091499;28;20028;-74
2023/03/14 11:01:55;;;;;;;23.67;3.60;;;;;;;;;;5092499;28;20028;-74
2023/03/14 11:04:40;;;;;;;29.77;4.80;;;;;;;;;;5091731;28;20369;-74
2023/03/14 11:07:10;;;;;;;21.33;3.38;;;;;;;;;;5092649;28;20028;-74
2023/03/14 11:09:42;;;;;;;23.63;3.75;;;;;;;;;;5092767;28;20032;-74
2023/03/14 11:12:11;;;;;;;27.27;4.23;;;;;;;;;;5091769;28;20036;-75
2023/03/14 11:14:41;;;;;;;36.67;5.15;;;;;;;;;;5092600;28;20024;-75
2023/03/14 11:17:13;;;;;;;28.92;4.13;;;;;;;;;;5091580;28;20073;-74
2023/03/14 11:19:39;;;;;;;30.95;5.13;;;;;;;;;;5092694;28;20035;-74
2023/03/14 11:22:13;;;;;;;20.92;4.57;;;;;;;;;;5090662;28;20099;-74
2023/03/14 11:24:45;;;;;;;17.63;3.53;;;;;;;;;;5073196;28;20027;-76
2023/03/14 11:27:32;;;;;;;27.92;5.65;;;;;;;;;;5088059;28;20381;-76
2023/03/14 11:30:18;;;;;;;24.38;6.18;;;;;;;;;;5068799;28;20583;-74
2023/03/14 11:32:45;;;;;;;31.73;6.45;;;;;;;;;;5074360;28;20806;-75
2023/03/14 11:35:24;;;;;;;21.77;3.83;;;;;;;;;;5081489;28;20438;-75
2023/03/14 11:37:56;;;;;;;27.08;3.70;;;;;;;;;;5077338;28;20472;-74
2023/03/14 11:40:24;;;;;;;22.20;3.75;;;;;;;;;;5069867;28;20075;-74
2023/03/14 11:43:08;;;;;;;20.60;3.97;;;;;;;;;;5085331;28;20032;-74
2023/03/14 11:45:36;;;;;;;31.73;3.72;;;;;;;;;;5076181;28;20391;-73
2023/03/14 11:48:25;;;;;;;27.80;3.45;;;;;;;;;;5081152;28;20015;-73
2023/03/14 11:50:53;;;;;;;14.02;2.30;;;;;;;;;;5074323;28;20039;-75
2023/03/14 11:53:25;;;;;;;19.33;3.97;;;;;;;;;;5083968;28;20115;-75
2023/03/14 11:55:53;;;;;;;20.85;2.78;;;;;;;;;;5082532;28;20024;-75
2023/03/14 11:58:34;;;;;;;16.02;2.85;;;;;;;;;;5080818;28;20021;-76
2023/03/14 12:01:02;;;;;;;14.57;2.78;;;;;;;;;;5072973;28;20025;-76
2023/03/14 12:03:35;;;;;;;27.25;4.38;;;;;;;;;;5092043;28;20515;-75
2023/03/14 12:06:20;;;;;;;18.40;3.13;;;;;;;;;;5079217;28;20029;-76
2023/03/14 12:08:46;;;;;;;16.42;2.95;;;;;;;;;;5080868;28;20025;-76
2023/03/14 12:11:24;;;;;;;11.98;2.10;;;;;;;;;;5081195;28;20023;-75
2023/03/14 12:13:52;;;;;;;14.55;2.40;;;;;;;;;;5078451;28;20103;-75
2023/03/14 12:16:24;;;;;;;6.00;1.40;;;;;;;;;;5080466;28;20031;-75
2023/03/14 12:18:53;;;;;;;12.65;1.52;;;;;;;;;;5079106;28;20028;-76
2023/03/14 12:21:20;;;;;;;7.75;2.03;;;;;;;;;;5092075;28;20082;-76
2023/03/14 12:23:50;;;;;;;11.77;2.05;;;;;;;;;;5091384;28;20020;-76
2023/03/14 12:26:18;;;;;;;13.40;3.05;;;;;;;;;;5092039;28;20027;-76
2023/03/14 12:28:49;;;;;;;12.52;2.03;;;;;;;;;;5090586;28;20168;-76
2023/03/14 12:31:33;;;;;;;8.52;1.63;;;;;;;;;;5091386;28;20028;-76
2023/03/14 12:34:12;;;;;;;7.40;2.00;;;;;;;;;;5091670;28;20028;-75
2023/03/14 12:36:50;;;;;;;14.70;2.97;;;;;;;;;;5091784;28;20032;-76
2023/03/14 12:39:23;;;;;;;7.70;1.52;;;;;;;;;;5090296;28;20495;-76
2023/03/14 12:41:52;;;;;;;14.02;2.17;;;;;;;;;;5088368;28;20028;-75
2023/03/14 12:44:30;;;;;;;13.38;3.05;;;;;;;;;;5053842;28;20025;-75
2023/03/14 12:47:00;;;;;;;7.47;1.42;;;;;;;;;;5081515;28;20095;-74
2023/03/14 12:49:30;;;;;;;13.15;1.92;;;;;;;;;;5079456;28;20085;-74
2023/03/14 12:52:00;;;;;;;13.45;2.22;;;;;;;;;;5079523;28;20028;-74
2023/03/14 12:54:38;;;;;;;10.38;1.75;;;;;;;;;;5078618;28;20049;-74
2023/03/14 12:57:04;;;;;;;7.47;1.63;;;;;;;;;;5081351;28;20479;-75
2023/03/14 12:59:32;;;;;;;13.15;2.05;;;;;;;;;;5080449;28;20150;-75
2023/03/14 13:02:02;;;;;;;16.23;2.22;;;;;;;;;;5087926;28;20028;-75
2023/03/14 13:04:52;;;;;;;8.63;1.63;;;;;;;;;;5094210;28;20027;-74
2023/03/14 13:07:38;;;;;;;13.25;2.78;;;;;;;;;;5084499;28;20032;-74
2023/03/14 13:10:16;;;;;;;11.82;2.15;;;;;;;;;;5095440;28;20457;-74
2023/03/14 13:12:48;;;;;;;15.95;2.47;;;;;;;;;;5095041;28;20051;-74
2023/03/14 13:15:18;;;;;;;11.68;2.05;;;;;;;;;;5095144;28;20106;-75
2023/03/14 13:17:44;;;;;;;4.90;1.75;;;;;;;;;;5076549;28;20036;-75
2023/03/14 13:20:14;;;;;;;11.32;1.67;;;;;;;;;;5095095;28;20024;-75
2023/03/14 13:22:46;;;;;;;11.00;2.05;;;;;;;;;;5093635;28;20073;-75
2023/03/14 13:25:12;;;;;;;11.20;1.70;;;;;;;;;;5095057;28;20506;-75
2023/03/14 13:27:38;;;;;;;10.55;1.65;;;;;;;;;;5094701;28;20097;-75
2023/03/14 13:30:16;;;;;;;8.48;2.38;;;;;;;;;;5094153;28;20655;-75
2023/03/14 13:32:44;;;;;;;9.88;2.00;;;;;;;;;;5075780;28;20035;-75
2023/03/14 13:35:30;;;;;;;7.75;1.42;;;;;;;;;;5077217;28;20027;-75
2023/03/14 13:37:58;;;;;;;10.45;2.15;;;;;;;;;;5094246;28;20111;-75
2023/03/14 13:40:30;;;;;;;12.27;2.35;;;;;;;;;;5074538;28;20055;-75
2023/03/14 13:43:05;;;;;;;15.05;2.10;;;;;;;;;;5073933;28;20503;-74
2023/03/14 13:45:31;;;;;;;15.23;2.30;;;;;;;;;;5073041;28;20036;-75
2023/03/14 13:47:57;;;;;;;22.58;1.98;;;;;;;;;;5074245;28;20028;-74
2023/03/14 13:50:23;;;;;;;12.27;2.80;;;;;;;;;;5074425;28;20031;-74
2023/03/14 13:52:55;;;;;;;11.05;1.65;;;;;;;;;;5074035;28;20028;-74
2023/03/14 13:55:21;;;;;;;11.97;2.90;;;;;;;;;;5074205;28;20107;-75
2023/03/14 13:57:55;;;;;;;8.02;1.55;;;;;;;;;;5072687;28;20400;-74
2023/03/14 14:00:27;;;;;;;13.35;1.85;;;;;;;;;;5073763;28;20036;-75
2023/03/14 14:02:57;;;;;;;15.55;2.22;;;;;;;;;;5072741;28;20068;-75
2023/03/14 14:05:26;;;;;;;11.55;2.20;;;;;;;;;;5074065;28;20028;-75
2023/03/14 14:07:52;;;;;;;16.63;1.60;;;;;;;;;;5072449;28;20035;-74
2023/03/14 14:10:19;;;;;;;6.90;1.98;;;;;;;;;;5074132;28;20107;-74
2023/03/14 14:13:04;;;;;;;6.10;1.75;;;;;;;;;;5073752;28;20028;-75
2023/03/14 14:15:35;;;;;;;8.32;1.42;;;;;;;;;;5073366;28;20112;-74
2023/03/14 14:18:02;;;;;;;7.65;1.73;;;;;;;;;;5072249;28;20036;-74
2023/03/14 14:20:34;;;;;;;19.48;2.13;;;;;;;;;;5072288;28;20036;-74
2023/03/14 14:23:05;;;;;;;18.45;2.05;;;;;;;;;;5073574;28;20046;-74
2023/03/14 14:25:31;;;;;;;11.02;2.03;;;;;;;;;;5073661;28;20067;-74
2023/03/14 14:27:58;;;;;;;13.18;2.38;;;;;;;;;;5087566;28;20098;-75
2023/03/14 14:30:27;;;;;;;10.23;1.83;;;;;;;;;;5092332;28;20081;-74
2023/03/14 14:32:53;;;;;;;10.63;2.45;;;;;;;;;;5093325;28;20020;-74
2023/03/14 14:35:33;;;;;;;12.93;1.70;;;;;;;;;;5093690;28;20119;-74
2023/03/14 14:38:00;;;;;;;11.27;1.67;;;;;;;;;;5092161;28;20032;-75
2023/03/14 14:40:27;;;;;;;6.15;1.65;;;;;;;;;;5089134;28;20098;-76
2023/03/14 14:42:54;;;;;;;10.30;1.85;;;;;;;;;;5075003;28;20033;-75
2023/03/14 14:45:21;;;;;;;10.55;2.92;;;;;;;;;;5081081;28;20024;-75
2023/03/14 14:47:50;;;;;;;10.88;2.33;;;;;;;;;;5078536;28;20119;-74